Time;durP1;ratioP1;P1;durP2;ratioP2;P2;SDS_P1;SDS_P2;PMS_P1;PMS_P2;Temp;Humidity;BMP_temperature;BMP_pressure;BME280_temperature;BME280_humidity;BME280_pressure;Samples;Min_cycle;Max_cycle;Signal;HPM_P1;HPM_P2
2023/09/27 00:01:43;;;;;;;11.23;8.77;;;18.00;99.90;;;;;;5023612;28;20486;-84
2023/09/27 00:04:08;;;;;;;10.90;8.57;;;18.00;99.90;;;;;;5012807;28;20474;-83
2023/09/27 00:06:34;;;;;;;8.43;7.70;;;18.70;99.90;;;;;;5012544;28;20101;-83
2023/09/27 00:08:59;;;;;;;9.73;8.82;;;17.90;99.90;;;;;;5012051;28;20030;-84
2023/09/27 00:11:26;;;;;;;8.95;7.25;;;17.90;99.90;;;;;;5013015;28;20128;-83
2023/09/27 00:13:51;;;;;;;8.70;7.90;;;17.90;99.90;;;;;;5025147;28;20053;-83
2023/09/27 00:16:17;;;;;;;8.18;7.03;;;17.80;99.90;;;;;;5032050;28;20036;-84
2023/09/27 00:18:42;;;;;;;8.23;7.53;;;18.00;99.90;;;;;;5030481;28;20032;-84
2023/09/27 00:21:08;;;;;;;9.45;8.52;;;17.80;99.90;;;;;;5015072;28;20032;-84
2023/09/27 00:23:33;;;;;;;8.68;7.80;;;17.80;99.90;;;;;;5026642;28;20056;-84
2023/09/27 00:25:59;;;;;;;8.48;7.78;;;17.80;99.90;;;;;;5052626;22;20053;-84
2023/09/27 00:28:25;;;;;;;8.15;7.45;;;17.80;99.90;;;;;;5051566;28;20544;-84
2023/09/27 00:30:51;;;;;;;8.30;7.57;;;18.20;99.90;;;;;;5039938;28;20033;-83
2023/09/27 00:33:16;;;;;;;10.25;8.60;;;17.80;99.90;;;;;;5032352;28;20499;-84
2023/09/27 00:35:47;;;;;;;8.68;7.30;;;17.80;99.90;;;;;;5031295;28;20039;-84
2023/09/27 00:38:13;;;;;;;9.85;7.13;;;17.70;99.90;;;;;;5032065;28;20018;-83
2023/09/27 00:40:57;;;;;;;8.90;8.20;;;17.80;99.90;;;;;;5032355;28;20478;-83
2023/09/27 00:43:30;;;;;;;8.00;7.32;;;17.70;99.90;;;;;;5048115;28;20060;-85
2023/09/27 00:45:59;;;;;;;10.10;9.25;;;17.70;99.90;;;;;;5051039;28;20025;-85
2023/09/27 00:48:25;;;;;;;9.70;8.80;;;17.50;99.90;;;;;;5051691;28;20044;-85
2023/09/27 00:50:53;;;;;;;9.30;8.45;;;17.80;99.90;;;;;;5051144;28;20068;-85
2023/09/27 00:53:21;;;;;;;11.65;8.43;;;18.10;99.90;;;;;;5053801;28;20044;-85
2023/09/27 00:55:47;;;;;;;9.60;8.65;;;17.80;99.90;;;;;;5056096;28;20473;-86
2023/09/27 00:58:18;;;;;;;9.32;8.40;;;17.70;99.90;;;;;;5056287;28;20041;-85
2023/09/27 01:01:03;;;;;;;9.35;8.48;;;17.70;99.90;;;;;;5054891;28;20028;-85
2023/09/27 01:03:29;;;;;;;10.13;9.13;;;17.50;99.90;;;;;;5046618;28;20070;-86
2023/09/27 01:05:55;;;;;;;9.13;8.18;;;17.70;99.90;;;;;;5046649;28;20022;-86
2023/09/27 01:08:21;;;;;;;14.40;8.70;;;17.60;99.90;;;;;;5035566;28;20037;-86
2023/09/27 01:10:47;;;;;;;10.48;9.10;;;17.70;99.90;;;;;;5034353;28;20030;-85
2023/09/27 01:13:13;;;;;;;9.38;8.63;;;17.70;99.90;;;;;;5034705;28;20017;-85
2023/09/27 01:15:39;;;;;;;10.43;9.00;;;17.70;99.90;;;;;;5034806;28;20030;-85
2023/09/27 01:18:04;;;;;;;10.85;9.25;;;18.40;99.90;;;;;;5034874;28;20048;-85
2023/09/27 01:20:34;;;;;;;9.82;8.85;;;17.80;99.90;;;;;;5035479;28;20026;-85
2023/09/27 01:23:01;;;;;;;11.70;9.25;;;17.70;99.90;;;;;;5039836;28;20035;-85
2023/09/27 01:25:31;;;;;;;12.13;8.90;;;17.70;99.90;;;;;;5054797;28;20067;-85
2023/09/27 01:27:58;;;;;;;10.82;9.75;;;17.70;99.90;;;;;;5041250;28;20091;-84
2023/09/27 01:30:25;;;;;;;10.18;9.23;;;17.70;99.90;;;;;;5053240;28;20043;-85
2023/09/27 01:32:51;;;;;;;10.20;9.15;;;17.70;99.90;;;;;;5054565;28;20028;-85
2023/09/27 01:35:17;;;;;;;10.13;8.77;;;17.70;99.90;;;;;;5056069;28;20036;-84
2023/09/27 01:37:42;;;;;;;10.32;9.32;;;17.80;99.90;;;;;;5056138;28;20396;-85
2023/09/27 01:40:16;;;;;;;9.98;9.18;;;17.90;99.90;;;;;;5039726;28;20545;-84
2023/09/27 01:42:43;;;;;;;11.55;9.77;;;17.60;99.90;;;;;;5036500;28;20113;-85
2023/09/27 01:45:12;;;;;;;10.15;9.32;;;17.60;99.90;;;;;;5040805;28;20083;-84
2023/09/27 01:47:38;;;;;;;10.73;9.75;;;17.70;99.90;;;;;;5041995;28;20032;-84
2023/09/27 01:50:07;;;;;;;13.27;9.27;;;17.60;99.90;;;;;;5056036;28;20033;-83
2023/09/27 01:52:33;;;;;;;12.52;9.32;;;17.20;99.90;;;;;;5036998;28;20022;-83
2023/09/27 01:54:59;;;;;;;10.75;9.85;;;17.70;99.90;;;;;;5036088;28;20025;-84
2023/09/27 01:57:24;;;;;;;12.48;9.98;;;17.60;99.90;;;;;;5036181;28;20033;-85
2023/09/27 01:59:50;;;;;;;14.13;10.80;;;17.60;99.90;;;;;;5035622;28;20030;-85
2023/09/27 02:02:16;;;;;;;10.65;9.68;;;17.50;99.90;;;;;;5051775;28;20424;-86
2023/09/27 02:04:41;;;;;;;12.85;10.27;;;18.00;99.90;;;;;;5053621;28;20032;-86
2023/09/27 02:07:07;;;;;;;10.35;9.38;;;17.50;99.90;;;;;;5033874;28;20031;-85
2023/09/27 02:09:33;;;;;;;11.52;10.20;;;17.40;99.90;;;;;;5034451;28;20068;-85
2023/09/27 02:11:58;;;;;;;11.27;9.65;;;17.50;99.90;;;;;;5027706;28;20026;-85
2023/09/27 02:14:24;;;;;;;10.95;9.95;;;17.40;99.90;;;;;;5027111;28;20032;-84
2023/09/27 02:16:49;;;;;;;10.75;9.40;;;17.60;99.90;;;;;;5034525;28;20109;-85
2023/09/27 02:19:15;;;;;;;13.57;9.88;;;17.40;99.90;;;;;;5024751;28;20041;-85
2023/09/27 02:21:40;;;;;;;10.25;9.45;;;17.30;99.90;;;;;;5013869;28;20051;-85
2023/09/27 02:24:07;;;;;;;11.07;9.93;;;17.40;99.90;;;;;;5014628;28;20026;-85
2023/09/27 02:26:33;;;;;;;11.05;9.70;;;17.40;99.90;;;;;;5018212;28;20026;-86
2023/09/27 02:29:00;;;;;;;10.88;9.75;;;17.40;99.90;;;;;;5031338;28;20044;-85
2023/09/27 02:31:25;;;;;;;11.18;10.35;;;17.50;99.90;;;;;;5029315;28;20385;-86
2023/09/27 02:33:51;;;;;;;11.80;10.80;;;17.30;99.90;;;;;;5026319;28;20109;-86
2023/09/27 02:36:17;;;;;;;10.20;9.30;;;17.40;99.90;;;;;;5033833;28;20075;-84
2023/09/27 02:38:42;;;;;;;11.38;10.10;;;17.30;99.90;;;;;;5027099;28;20462;-83
2023/09/27 02:41:08;;;;;;;11.02;10.13;;;17.30;99.90;;;;;;5033107;28;20025;-84
2023/09/27 02:43:33;;;;;;;11.05;10.05;;;17.30;99.90;;;;;;5033366;28;20470;-84
2023/09/27 02:45:59;;;;;;;11.52;10.48;;;17.20;99.90;;;;;;5034377;28;20397;-84
2023/09/27 02:48:25;;;;;;;12.63;10.93;;;17.50;99.90;;;;;;5034414;28;20465;-84
2023/09/27 02:50:55;;;;;;;12.35;10.95;;;17.20;99.90;;;;;;5033266;28;20112;-84
2023/09/27 02:53:21;;;;;;;12.43;11.30;;;17.30;99.90;;;;;;5032993;28;20057;-84
2023/09/27 02:55:46;;;;;;;11.25;10.13;;;17.20;99.90;;;;;;5033846;28;20775;-84
2023/09/27 02:58:12;;;;;;;11.02;10.05;;;17.30;99.90;;;;;;5031483;28;20025;-84
2023/09/27 03:00:38;;;;;;;10.95;9.95;;;17.20;99.90;;;;;;5014244;28;20030;-84
2023/09/27 03:03:04;;;;;;;12.18;11.13;;;17.20;99.90;;;;;;5027346;28;20025;-84
2023/09/27 03:05:35;;;;;;;11.50;10.38;;;17.20;99.90;;;;;;5033579;28;20049;-84
2023/09/27 03:08:01;;;;;;;13.65;9.45;;;17.20;99.90;;;;;;5033749;28;20448;-84
2023/09/27 03:10:26;;;;;;;12.65;10.95;;;17.20;99.90;;;;;;5031868;28;20076;-84
2023/09/27 03:12:54;;;;;;;11.15;10.05;;;17.20;99.90;;;;;;5026445;28;20025;-84
2023/09/27 03:15:19;;;;;;;11.40;10.20;;;17.10;99.90;;;;;;5026452;28;20037;-84
2023/09/27 03:17:46;;;;;;;12.48;10.77;;;17.10;99.90;;;;;;5032660;28;20028;-84
2023/09/27 03:20:18;;;;;;;11.45;10.38;;;17.10;99.90;;;;;;5033564;28;20030;-84
2023/09/27 03:22:46;;;;;;;11.13;10.18;;;17.10;99.90;;;;;;5033287;28;20037;-84
2023/09/27 03:25:12;;;;;;;11.07;10.18;;;17.20;99.90;;;;;;5032666;28;20672;-84
2023/09/27 03:27:38;;;;;;;11.63;10.52;;;17.10;99.90;;;;;;5033311;28;20478;-84
2023/09/27 03:30:05;;;;;;;10.90;9.82;;;17.20;99.90;;;;;;5033283;28;20111;-84
2023/09/27 03:32:32;;;;;;;9.50;8.70;;;17.10;99.90;;;;;;5022143;28;20055;-84
2023/09/27 03:34:58;;;;;;;10.05;9.10;;;17.10;99.90;;;;;;5033088;28;20386;-84
2023/09/27 03:37:23;;;;;;;10.40;9.50;;;17.00;99.90;;;;;;5025054;28;20095;-84
2023/09/27 03:39:52;;;;;;;10.45;9.48;;;16.90;99.90;;;;;;5034555;28;20477;-84
2023/09/27 03:42:18;;;;;;;9.95;8.93;;;16.90;99.90;;;;;;5024417;28;20397;-84
2023/09/27 03:44:44;;;;;;;10.05;9.05;;;17.00;99.90;;;;;;5012998;28;20022;-85
2023/09/27 03:47:10;;;;;;;10.95;10.05;;;16.90;99.90;;;;;;5012276;28;20032;-84
2023/09/27 03:49:36;;;;;;;12.68;10.68;;;17.00;99.90;;;;;;5013308;28;20030;-84
2023/09/27 03:52:02;;;;;;;11.20;10.00;;;17.00;99.90;;;;;;5047986;22;20079;-84
2023/09/27 03:54:27;;;;;;;9.90;9.02;;;16.90;99.90;;;;;;5064065;28;20056;-84
2023/09/27 03:56:54;;;;;;;10.68;9.68;;;16.80;99.90;;;;;;5056796;28;20649;-84
2023/09/27 03:59:20;;;;;;;10.30;9.50;;;16.80;99.90;;;;;;5051968;28;20108;-84
2023/09/27 04:01:46;;;;;;;11.85;9.23;;;16.80;99.90;;;;;;5052581;28;20096;-84
2023/09/27 04:04:11;;;;;;;11.27;9.57;;;16.80;99.90;;;;;;5052609;28;20544;-83
2023/09/27 04:06:37;;;;;;;10.80;9.90;;;16.80;99.90;;;;;;5051829;28;20023;-85
2023/09/27 04:09:04;;;;;;;13.43;11.10;;;16.80;99.90;;;;;;5052464;28;20469;-85
2023/09/27 04:11:29;;;;;;;11.93;10.82;;;16.70;99.90;;;;;;5052307;28;20033;-85
2023/09/27 04:13:55;;;;;;;10.20;9.20;;;16.70;99.90;;;;;;5071623;28;20028;-85
2023/09/27 04:16:20;;;;;;;10.18;9.10;;;16.80;99.90;;;;;;5072535;28;20380;-84
2023/09/27 04:18:46;;;;;;;13.43;10.52;;;16.70;99.90;;;;;;5067577;28;20029;-85
2023/09/27 04:21:12;;;;;;;11.45;10.38;;;16.80;99.90;;;;;;5056125;28;20032;-85
2023/09/27 04:23:38;;;;;;;11.75;10.68;;;16.60;99.90;;;;;;5071910;28;20472;-84
2023/09/27 04:26:07;;;;;;;12.00;10.90;;;16.60;99.90;;;;;;5065637;28;20029;-84
2023/09/27 04:28:33;;;;;;;11.90;10.52;;;16.80;99.90;;;;;;5050770;28;20024;-84
2023/09/27 04:30:59;;;;;;;15.15;11.55;;;17.10;99.90;;;;;;5052051;28;20029;-84
2023/09/27 04:33:24;;;;;;;12.23;11.02;;;16.60;99.90;;;;;;5052255;28;20139;-84
2023/09/27 04:35:50;;;;;;;11.65;10.75;;;17.00;99.90;;;;;;5051280;28;20445;-85
2023/09/27 04:38:16;;;;;;;11.20;10.07;;;17.20;99.90;;;;;;5052888;28;20104;-84
2023/09/27 04:40:42;;;;;;;15.30;11.68;;;16.70;99.90;;;;;;5060806;28;20052;-85
2023/09/27 04:43:08;;;;;;;12.98;11.77;;;16.70;99.90;;;;;;5068952;28;20024;-85
2023/09/27 04:45:34;;;;;;;12.90;11.70;;;16.80;99.90;;;;;;5072198;28;20101;-84
2023/09/27 04:47:59;;;;;;;13.27;12.07;;;16.60;99.90;;;;;;5071399;28;20060;-84
2023/09/27 04:50:25;;;;;;;15.70;10.57;;;16.60;99.90;;;;;;5054319;28;20041;-84
2023/09/27 04:52:51;;;;;;;12.25;11.25;;;16.60;99.90;;;;;;5051808;28;20459;-84
2023/09/27 04:55:17;;;;;;;11.50;9.70;;;16.60;99.90;;;;;;5052848;28;20029;-84
2023/09/27 04:57:43;;;;;;;13.35;11.73;;;17.00;99.90;;;;;;5044667;28;20429;-84
2023/09/27 05:00:18;;;;;;;14.32;12.95;;;16.50;99.90;;;;;;5045815;28;20472;-84
2023/09/27 05:02:45;;;;;;;12.82;11.40;;;16.50;99.90;;;;;;5049400;28;20028;-84
2023/09/27 05:05:11;;;;;;;13.02;11.93;;;16.40;99.90;;;;;;5071846;28;20035;-84
2023/09/27 05:07:36;;;;;;;14.35;12.25;;;17.20;99.90;;;;;;5053429;28;20025;-84
2023/09/27 05:10:02;;;;;;;13.98;12.20;;;17.50;99.90;;;;;;5045380;28;20450;-84
2023/09/27 05:12:28;;;;;;;15.32;11.32;;;16.50;99.90;;;;;;5071920;28;20107;-84
2023/09/27 05:14:53;;;;;;;13.10;11.75;;;16.50;99.90;;;;;;5050638;22;20053;-84
2023/09/27 05:17:19;;;;;;;16.02;12.30;;;16.50;99.90;;;;;;5031078;28;20072;-84
2023/09/27 05:19:45;;;;;;;12.77;11.48;;;16.50;99.90;;;;;;5031356;28;20497;-84
2023/09/27 05:22:11;;;;;;;13.25;12.07;;;16.40;99.90;;;;;;5037437;28;20484;-84
2023/09/27 05:24:52;;;;;;;14.45;12.88;;;16.80;99.90;;;;;;5035230;28;20073;-84
2023/09/27 05:27:18;;;;;;;18.13;11.43;;;16.40;99.90;;;;;;5048636;28;20060;-83
2023/09/27 05:29:45;;;;;;;12.30;10.88;;;16.50;99.90;;;;;;5051141;28;20071;-83
2023/09/27 05:32:10;;;;;;;13.15;11.73;;;16.40;99.90;;;;;;5051291;28;20029;-83
2023/09/27 05:34:43;;;;;;;11.98;10.98;;;16.80;99.90;;;;;;5045410;28;20033;-83
2023/09/27 05:37:08;;;;;;;12.30;10.95;;;16.30;99.90;;;;;;5051591;28;20032;-83
2023/09/27 05:39:34;;;;;;;13.07;11.00;;;17.10;99.90;;;;;;5052482;28;20021;-84
2023/09/27 05:42:21;;;;;;;13.30;11.27;;;16.50;99.90;;;;;;5048138;28;20057;-84
2023/09/27 05:44:47;;;;;;;12.57;11.38;;;16.40;99.90;;;;;;5035007;28;20025;-84
2023/09/27 05:47:12;;;;;;;17.50;12.10;;;17.00;99.90;;;;;;5048293;28;20029;-85
2023/09/27 05:49:38;;;;;;;15.38;11.23;;;16.70;99.90;;;;;;5045252;28;20056;-84
2023/09/27 05:52:12;;;;;;;14.02;10.57;;;17.50;99.90;;;;;;5035706;28;20496;-84
2023/09/27 05:54:39;;;;;;;14.18;10.98;;;16.40;99.90;;;;;;5034238;28;20032;-84
2023/09/27 05:57:06;;;;;;;12.48;10.73;;;16.40;99.90;;;;;;5035229;28;20034;-84
2023/09/27 05:59:45;;;;;;;12.30;10.52;;;16.40;99.90;;;;;;5034352;28;20022;-84
2023/09/27 06:02:16;;;;;;;13.18;11.50;;;16.30;99.90;;;;;;5038373;28;20039;-84
2023/09/27 06:05:00;;;;;;;19.15;11.55;;;16.70;99.90;;;;;;5043445;28;20029;-84
2023/09/27 06:07:41;;;;;;;12.60;11.18;;;16.40;99.90;;;;;;5034385;28;20469;-84
2023/09/27 06:10:08;;;;;;;12.90;11.55;;;16.40;99.90;;;;;;5035031;28;20042;-84
2023/09/27 06:12:33;;;;;;;12.95;11.73;;;16.30;99.90;;;;;;5035222;28;20017;-84
2023/09/27 06:14:59;;;;;;;13.30;12.00;;;16.30;99.90;;;;;;5033961;28;20437;-84
2023/09/27 06:17:25;;;;;;;14.48;12.02;;;16.40;99.90;;;;;;5034844;28;20029;-84
2023/09/27 06:20:15;;;;;;;14.32;11.80;;;16.30;99.90;;;;;;5034065;28;20128;-84
2023/09/27 06:22:54;;;;;;;18.45;12.35;;;16.30;99.90;;;;;;5043018;28;20505;-86
2023/09/27 06:25:23;;;;;;;14.43;12.27;;;16.30;99.90;;;;;;5040426;28;20033;-85
2023/09/27 06:27:49;;;;;;;15.25;12.10;;;17.00;99.90;;;;;;5033518;28;20036;-86
2023/09/27 06:30:15;;;;;;;16.05;12.43;;;16.90;99.90;;;;;;5034645;28;20033;-85
2023/09/27 06:32:41;;;;;;;15.55;13.95;;;16.30;99.90;;;;;;5034533;28;20057;-85
2023/09/27 06:35:12;;;;;;;15.40;11.63;;;16.30;99.90;;;;;;5033993;28;20079;-86
2023/09/27 06:37:40;;;;;;;18.63;13.20;;;16.40;99.90;;;;;;5034355;28;20053;-85
2023/09/27 06:40:09;;;;;;;16.17;12.65;;;16.40;99.90;;;;;;5034401;28;20029;-85
2023/09/27 06:42:35;;;;;;;18.48;13.32;;;16.40;99.90;;;;;;5044552;28;20024;-84
2023/09/27 06:45:00;;;;;;;20.20;13.43;;;16.30;99.90;;;;;;5054839;28;20021;-85
2023/09/27 06:47:31;;;;;;;21.15;13.18;;;16.40;99.90;;;;;;5054355;28;20021;-85
2023/09/27 06:49:56;;;;;;;27.27;13.82;;;16.50;99.90;;;;;;5054384;28;20041;-85
2023/09/27 06:52:22;;;;;;;13.38;12.07;;;16.60;99.90;;;;;;5053245;28;20108;-86
2023/09/27 06:54:48;;;;;;;15.65;13.05;;;16.50;99.90;;;;;;5052914;28;20032;-85
2023/09/27 06:57:13;;;;;;;21.42;14.38;;;16.50;99.90;;;;;;5052980;28;20029;-84
2023/09/27 06:59:39;;;;;;;19.15;14.40;;;16.40;99.90;;;;;;5053294;28;20518;-84
2023/09/27 07:02:06;;;;;;;18.73;15.20;;;16.50;99.90;;;;;;5055492;28;20063;-85
2023/09/27 07:04:31;;;;;;;16.02;14.02;;;16.60;99.90;;;;;;5042790;28;20109;-84
2023/09/27 07:06:57;;;;;;;19.98;14.80;;;16.60;99.90;;;;;;5043842;28;20171;-85
2023/09/27 07:09:23;;;;;;;19.65;15.73;;;16.60;99.90;;;;;;5052333;28;20096;-84
2023/09/27 07:11:48;;;;;;;28.52;15.85;;;16.50;99.90;;;;;;5052152;28;20772;-83
2023/09/27 07:14:15;;;;;;;21.70;15.02;;;16.70;99.90;;;;;;5052263;28;20086;-84
2023/09/27 07:16:41;;;;;;;21.15;16.65;;;16.80;99.90;;;;;;5052269;28;20032;-82
2023/09/27 07:19:07;;;;;;;25.73;16.27;;;16.70;99.90;;;;;;5052657;28;20025;-82
2023/09/27 07:21:33;;;;;;;18.48;16.52;;;16.70;99.90;;;;;;5051730;28;20025;-81
2023/09/27 07:23:59;;;;;;;18.48;16.35;;;16.70;99.90;;;;;;5050794;28;20396;-84
2023/09/27 07:26:24;;;;;;;25.88;17.58;;;17.70;99.90;;;;;;5051497;28;20098;-87
2023/09/27 07:28:50;;;;;;;19.80;16.50;;;16.70;99.90;;;;;;5049986;28;20061;-83
2023/09/27 07:31:16;;;;;;;20.33;16.75;;;16.80;99.90;;;;;;5052303;28;20025;-85
2023/09/27 07:33:55;;;;;;;20.67;16.50;;;16.80;99.90;;;;;;5052852;28;20103;-83
2023/09/27 07:36:24;;;;;;;20.80;16.00;;;16.80;99.90;;;;;;5050226;28;20025;-83
2023/09/27 07:38:55;;;;;;;21.17;16.42;;;16.90;99.90;;;;;;5051129;28;20041;-84
2023/09/27 07:41:21;;;;;;;19.13;14.70;;;16.90;99.90;;;;;;5052734;28;20486;-83
2023/09/27 07:43:50;;;;;;;16.50;14.93;;;16.80;99.90;;;;;;5045951;28;20229;-84
2023/09/27 07:46:17;;;;;;;17.15;14.88;;;17.00;99.90;;;;;;5046906;28;20016;-83
2023/09/27 07:48:55;;;;;;;22.80;15.93;;;16.90;99.90;;;;;;5032484;28;20061;-81
2023/09/27 07:51:22;;;;;;;17.17;15.13;;;16.90;99.90;;;;;;5031026;28;20120;-83
2023/09/27 07:53:49;;;;;;;17.80;15.35;;;18.20;99.90;;;;;;5030900;28;20096;-85
2023/09/27 07:56:19;;;;;;;18.98;17.02;;;17.80;99.90;;;;;;5031258;28;20030;-86
2023/09/27 07:58:47;;;;;;;19.98;16.50;;;17.00;99.90;;;;;;5030336;28;20409;-84
2023/09/27 08:01:20;;;;;;;21.75;17.13;;;17.10;99.90;;;;;;5030838;28;20034;-84
2023/09/27 08:03:47;;;;;;;19.50;16.58;;;17.10;99.90;;;;;;5029299;28;20029;-85
2023/09/27 08:06:13;;;;;;;28.58;18.83;;;17.30;99.90;;;;;;5028478;28;20107;-85
2023/09/27 08:08:51;;;;;;;21.45;18.27;;;17.90;99.90;;;;;;4993712;28;20075;-84
2023/09/27 08:11:17;;;;;;;25.92;18.00;;;17.30;99.90;;;;;;5048686;28;20489;-84
2023/09/27 08:13:44;;;;;;;32.45;17.70;;;18.10;99.90;;;;;;5041175;28;20044;-83
2023/09/27 08:16:26;;;;;;;27.05;18.30;;;17.40;99.90;;;;;;5031663;28;20033;-84
2023/09/27 08:18:51;;;;;;;25.02;16.55;;;17.40;99.90;;;;;;5049384;28;20044;-84
2023/09/27 08:21:18;;;;;;;23.92;19.40;;;17.40;99.90;;;;;;5055241;28;20029;-86
2023/09/27 08:23:56;;;;;;;27.20;19.83;;;18.70;99.90;;;;;;5052012;28;20025;-83
2023/09/27 08:26:22;;;;;;;27.67;18.70;;;17.50;99.90;;;;;;5047903;28;20180;-84
2023/09/27 08:28:47;;;;;;;23.20;18.30;;;18.00;99.90;;;;;;5034846;28;20116;-83
2023/09/27 08:31:13;;;;;;;22.58;17.40;;;17.60;99.90;;;;;;5046821;28;20370;-83
2023/09/27 08:33:38;;;;;;;22.25;17.60;;;18.50;99.90;;;;;;5047926;28;20021;-83
2023/09/27 08:36:19;;;;;;;26.67;18.45;;;17.60;99.90;;;;;;5050242;28;20021;-83
2023/09/27 08:38:45;;;;;;;23.80;17.30;;;17.60;99.90;;;;;;5049393;28;20036;-84
2023/09/27 08:41:13;;;;;;;22.95;17.33;;;17.70;99.90;;;;;;5051188;28;20025;-84
2023/09/27 08:43:44;;;;;;;23.05;19.05;;;18.20;99.90;;;;;;5052106;28;20029;-84
2023/09/27 08:46:10;;;;;;;27.33;18.80;;;17.70;99.90;;;;;;5047111;28;20032;-84
2023/09/27 08:48:49;;;;;;;21.23;18.75;;;17.70;99.90;;;;;;5039468;28;20147;-84
2023/09/27 08:51:33;;;;;;;25.17;20.40;;;18.70;99.90;;;;;;5041815;28;20489;-84
2023/09/27 08:54:00;;;;;;;28.73;21.45;;;17.80;99.90;;;;;;5042000;28;20117;-84
2023/09/27 08:56:38;;;;;;;26.75;21.27;;;17.90;99.90;;;;;;5048063;28;20071;-85
2023/09/27 08:59:05;;;;;;;24.17;19.52;;;17.90;99.90;;;;;;5050008;28;20025;-84
2023/09/27 09:01:51;;;;;;;25.58;20.00;;;17.90;99.90;;;;;;5050507;28;20108;-89
2023/09/27 09:04:17;;;;;;;28.85;20.40;;;17.20;99.90;;;;;;5037801;28;20025;-90
2023/09/27 09:06:43;;;;;;;30.00;20.35;;;17.90;99.90;;;;;;5044022;28;20044;-91
2023/09/27 09:09:25;;;;;;;22.52;19.63;;;18.80;99.90;;;;;;5052008;28;20036;-85
2023/09/27 09:11:57;;;;;;;20.17;17.80;;;17.80;99.90;;;;;;5051627;28;20036;-81
2023/09/27 09:14:44;;;;;;;23.63;18.35;;;17.90;99.90;;;;;;5052800;28;20120;-85
2023/09/27 09:17:11;;;;;;;32.97;19.80;;;17.90;99.90;;;;;;5054790;28;20067;-85
2023/09/27 09:19:41;;;;;;;22.60;19.15;;;18.80;99.90;;;;;;5043667;28;20026;-83
2023/09/27 09:22:09;;;;;;;25.63;19.60;;;18.10;99.90;;;;;;5044998;28;20048;-85
2023/09/27 09:24:36;;;;;;;21.58;18.88;;;17.90;99.90;;;;;;5053885;28;20025;-86
2023/09/27 09:27:09;;;;;;;26.35;20.35;;;18.20;99.90;;;;;;5052571;28;20025;-86
2023/09/27 09:29:49;;;;;;;30.92;20.35;;;18.00;99.90;;;;;;5053471;28;20021;-86
2023/09/27 09:32:25;;;;;;;24.40;20.27;;;18.00;99.90;;;;;;5050928;28;20465;-83
2023/09/27 09:34:54;;;;;;;24.13;19.63;;;18.10;99.90;;;;;;5052582;28;20477;-85
2023/09/27 09:37:28;;;;;;;24.27;19.63;;;17.90;99.90;;;;;;5052378;28;20376;-85
2023/09/27 09:40:15;;;;;;;22.35;18.90;;;17.90;99.90;;;;;;5054016;28;20071;-88
2023/09/27 09:42:42;;;;;;;25.65;20.38;;;18.40;99.90;;;;;;5073083;28;20035;-84
2023/09/27 09:45:12;;;;;;;23.48;18.23;;;18.00;99.90;;;;;;5073245;28;20024;-85
2023/09/27 09:47:39;;;;;;;26.60;18.80;;;18.20;99.90;;;;;;5073711;28;20035;-83
2023/09/27 09:50:16;;;;;;;26.35;19.35;;;18.20;99.90;;;;;;5073424;28;20044;-83
2023/09/27 09:52:57;;;;;;;27.00;19.75;;;18.20;99.90;;;;;;5072876;28;20013;-84
2023/09/27 09:55:27;;;;;;;25.92;20.42;;;18.10;99.90;;;;;;5076761;28;20028;-86
2023/09/27 09:58:17;;;;;;;24.70;19.02;;;18.20;99.90;;;;;;5074701;28;20021;-87
2023/09/27 10:00:49;;;;;;;26.67;19.63;;;18.20;99.90;;;;;;5071427;28;20036;-85
2023/09/27 10:03:20;;;;;;;28.17;19.98;;;18.30;99.90;;;;;;5052691;28;20085;-86
2023/09/27 10:05:50;;;;;;;21.80;18.30;;;18.30;99.90;;;;;;5050937;28;20041;-86
2023/09/27 10:08:18;;;;;;;24.75;18.17;;;18.30;99.90;;;;;;5048915;28;20477;-91
2023/09/27 10:10:43;;;;;;;24.58;19.88;;;18.30;99.90;;;;;;5050699;28;20064;-90
2023/09/27 10:13:10;;;;;;;22.83;20.38;;;19.20;99.90;;;;;;5070811;28;20013;-86
2023/09/27 10:15:37;;;;;;;42.33;23.33;;;18.40;99.90;;;;;;5052423;28;20179;-85
2023/09/27 10:18:21;;;;;;;24.35;18.88;;;18.40;99.90;;;;;;5050288;28;20021;-84
2023/09/27 10:21:12;;;;;;;31.27;20.55;;;18.40;99.90;;;;;;5051344;28;20029;-88
2023/09/27 10:23:44;;;;;;;29.35;20.67;;;18.40;99.90;;;;;;5036362;28;20041;-86
2023/09/27 10:26:28;;;;;;;25.50;18.42;;;18.70;99.90;;;;;;5049776;28;20025;-86
2023/09/27 10:29:39;;;;;;;23.27;19.30;;;18.40;99.90;;;;;;5035501;28;20009;-84
2023/09/27 10:31:57;;;;;;;25.75;21.27;;;18.60;99.90;;;;;;5042952;28;20125;-84
2023/09/27 10:34:26;;;;;;;23.52;19.48;;;19.30;99.90;;;;;;5047589;28;20104;-84
2023/09/27 10:36:53;;;;;;;29.27;20.15;;;18.60;99.90;;;;;;5052486;28;20028;-83
2023/09/27 10:39:19;;;;;;;30.45;19.25;;;18.70;99.90;;;;;;5048815;28;20025;-84
2023/09/27 10:41:49;;;;;;;24.40;19.05;;;18.60;99.90;;;;;;5033323;28;20071;-85
2023/09/27 10:44:50;;;;;;;;;;;18.70;99.90;;;;;;5046514;28;20083;-85
2023/09/27 10:47:26;;;;;;;22.25;18.25;;;18.70;99.90;;;;;;5020879;28;19908;-85
2023/09/27 10:49:53;;;;;;;23.73;18.27;;;18.70;99.90;;;;;;5054012;28;20094;-86
2023/09/27 10:52:36;;;;;;;22.23;18.73;;;18.80;99.90;;;;;;5037009;28;20022;-87
2023/09/27 10:55:11;;;;;;;23.98;19.30;;;18.80;99.90;;;;;;5033590;28;20030;-86
2023/09/27 10:57:40;;;;;;;25.58;19.80;;;18.90;99.90;;;;;;5051453;28;20032;-89
2023/09/27 11:00:17;;;;;;;22.83;17.95;;;19.00;99.90;;;;;;5045456;28;20094;-87
2023/09/27 11:02:43;;;;;;;26.63;18.85;;;19.00;99.90;;;;;;5051881;28;20047;-88
2023/09/27 11:05:09;;;;;;;23.27;18.02;;;19.10;99.90;;;;;;5037420;28;20033;-89
2023/09/27 11:07:45;;;;;;;25.92;17.95;;;19.10;99.90;;;;;;5050911;28;20101;-89
2023/09/27 11:10:11;;;;;;;24.42;20.30;;;19.20;99.90;;;;;;5053134;28;20477;-90
2023/09/27 11:12:37;;;;;;;25.52;20.20;;;20.10;99.90;;;;;;5054075;28;20020;-90
2023/09/27 11:15:03;;;;;;;20.25;17.88;;;19.40;99.90;;;;;;5054277;28;20098;-90
2023/09/27 11:17:29;;;;;;;23.10;18.83;;;19.40;99.90;;;;;;5053138;28;20021;-90
2023/09/27 11:19:55;;;;;;;23.67;21.13;;;19.50;99.90;;;;;;5050655;28;20527;-90
2023/09/27 11:22:28;;;;;;;21.80;19.52;;;20.70;99.90;;;;;;5052440;28;20025;-90
2023/09/27 11:24:54;;;;;;;18.50;16.55;;;19.80;99.90;;;;;;5049192;28;20028;-89
2023/09/27 11:27:20;;;;;;;24.65;16.20;;;19.70;99.90;;;;;;5048972;28;20021;-90
2023/09/27 11:29:54;;;;;;;16.95;15.25;;;19.80;99.90;;;;;;5050721;28;20045;-89
2023/09/27 11:32:21;;;;;;;15.35;12.52;;;19.80;99.90;;;;;;5057506;28;20020;-89
2023/09/27 11:34:56;;;;;;;18.90;14.15;;;19.90;99.90;;;;;;5052605;28;20028;-89
2023/09/27 11:37:23;;;;;;;14.55;13.07;;;20.00;99.90;;;;;;5056179;28;20024;-88
2023/09/27 11:39:54;;;;;;;15.00;11.32;;;20.10;99.90;;;;;;5048145;28;20094;-88
2023/09/27 11:42:24;;;;;;;12.27;11.02;;;20.10;99.90;;;;;;5052896;28;20025;-89
2023/09/27 11:45:11;;;;;;;13.55;11.15;;;20.20;99.90;;;;;;5051753;28;20048;-89
2023/09/27 11:47:49;;;;;;;13.45;10.90;;;20.30;99.90;;;;;;5049270;28;20323;-85
2023/09/27 11:50:16;;;;;;;15.00;9.68;;;20.30;99.90;;;;;;5046226;28;20451;-84
2023/09/27 11:52:43;;;;;;;21.60;9.90;;;20.40;99.90;;;;;;5046712;28;20029;-87
2023/09/27 11:55:10;;;;;;;9.63;8.68;;;20.60;99.90;;;;;;5051158;28;20033;-87
2023/09/27 11:57:38;;;;;;;8.77;7.82;;;20.50;99.90;;;;;;5041913;28;20029;-87
2023/09/27 12:00:06;;;;;;;13.35;8.98;;;20.60;99.90;;;;;;5045722;28;20052;-85
2023/09/27 12:02:33;;;;;;;8.90;8.00;;;20.60;99.90;;;;;;5031792;28;20029;-87
2023/09/27 12:05:00;;;;;;;11.85;7.80;;;20.60;99.90;;;;;;5032705;28;20025;-86
2023/09/27 12:07:27;;;;;;;10.48;7.57;;;20.60;99.90;;;;;;5034049;28;20053;-85
2023/09/27 12:09:54;;;;;;;8.55;7.65;;;20.70;99.90;;;;;;5031974;28;20041;-84
2023/09/27 12:12:19;;;;;;;9.02;7.47;;;20.70;99.90;;;;;;5032194;28;20021;-84
2023/09/27 12:14:45;;;;;;;8.15;7.35;;;20.80;99.90;;;;;;5031367;28;20045;-85
2023/09/27 12:17:10;;;;;;;7.80;7.10;;;20.80;99.90;;;;;;5030094;28;20245;-85
2023/09/27 12:19:36;;;;;;;7.60;7.00;;;20.80;99.90;;;;;;5045392;28;20178;-85
2023/09/27 12:22:03;;;;;;;7.88;7.05;;;20.90;99.90;;;;;;5049464;28;20076;-85
2023/09/27 12:24:30;;;;;;;7.70;5.97;;;21.00;99.90;;;;;;5053207;28;20032;-85
2023/09/27 12:26:56;;;;;;;6.32;5.72;;;21.00;99.90;;;;;;5090787;22;20160;-84
2023/09/27 12:29:39;;;;;;;5.32;4.82;;;21.00;99.90;;;;;;5049418;28;20556;-85
2023/09/27 12:32:05;;;;;;;6.85;5.90;;;21.10;99.90;;;;;;5050654;28;20112;-84
2023/09/27 12:34:49;;;;;;;8.05;5.50;;;21.10;99.90;;;;;;5051479;28;20131;-84
2023/09/27 12:37:14;;;;;;;8.38;5.78;;;21.20;99.90;;;;;;5052751;28;20104;-84
2023/09/27 12:39:52;;;;;;;7.40;5.18;;;21.30;99.90;;;;;;5051256;28;20071;-84